Menomonie, Wisconsin
Current Conditions -  °F | °C
As of 4:35 PM on Sunday 23 Nov 2014 (Local Time) from KLUM Reporting Station
Moderate Fog Moderate Fog  
Wind Chill: 46°   Ceiling: 100
Heat Index: 46°   Visibility: 0.25mi
Dew Point: 46°   Wind: 3mph
Humidity: 98%   Direction: 100°E
Pressure: 29.34"   Gusts: NA
Location:  44.88°N, 91.93°W
Report Text: KLUM 232235Z AUTO 10003KT 1/4SM FG OVC001 08/08 A2934 RMK AO2 T00800077
Loading
Personal Weather Stations






























Interactive Weather Map New forecast layout! Learn more

10-Day Weather Forecast

Advertisements
Track Severe Weather on mobile